sensor_id;sensor_type;location;lat;lon;timestamp;P1;durP1;ratioP1;P2;durP2;ratioP2
60917;SDS011;46792;38.854;-9.384;2022-12-20T00:07:02;7.47;;;1.65;;
60917;SDS011;46792;38.854;-9.384;2022-12-20T00:09:03;6.63;;;1.60;;
60917;SDS011;46792;38.854;-9.384;2022-12-20T00:11:06;8.02;;;2.92;;
60917;SDS011;46792;38.854;-9.384;2022-12-20T00:13:26;7.05;;;2.50;;
60917;SDS011;46792;38.854;-9.384;2022-12-20T00:15:27;11.90;;;2.90;;
60917;SDS011;46792;38.854;-9.384;2022-12-20T00:17:46;12.48;;;2.35;;
60917;SDS011;46792;38.854;-9.384;2022-12-20T00:19:48;10.82;;;1.88;;
60917;SDS011;46792;38.854;-9.384;2022-12-20T00:21:49;4.88;;;1.38;;
60917;SDS011;46792;38.854;-9.384;2022-12-20T00:23:50;4.80;;;1.40;;
60917;SDS011;46792;38.854;-9.384;2022-12-20T00:26:04;3.42;;;1.38;;
60917;SDS011;46792;38.854;-9.384;2022-12-20T00:28:06;4.07;;;1.25;;
60917;SDS011;46792;38.854;-9.384;2022-12-20T00:35:23;6.25;;;2.30;;
60917;SDS011;46792;38.854;-9.384;2022-12-20T00:37:25;8.10;;;2.55;;
60917;SDS011;46792;38.854;-9.384;2022-12-20T00:39:30;10.23;;;2.50;;
60917;SDS011;46792;38.854;-9.384;2022-12-20T00:41:32;12.75;;;2.75;;
60917;SDS011;46792;38.854;-9.384;2022-12-20T00:43:34;10.07;;;2.63;;
60917;SDS011;46792;38.854;-9.384;2022-12-20T00:45:53;11.70;;;3.70;;
60917;SDS011;46792;38.854;-9.384;2022-12-20T00:47:54;3.47;;;1.58;;
60917;SDS011;46792;38.854;-9.384;2022-12-20T00:49:55;6.38;;;1.98;;
60917;SDS011;46792;38.854;-9.384;2022-12-20T00:52:14;2.90;;;1.35;;
60917;SDS011;46792;38.854;-9.384;2022-12-20T00:56:52;5.07;;;1.13;;
60917;SDS011;46792;38.854;-9.384;2022-12-20T00:58:53;1.15;;;0.70;;
60917;SDS011;46792;38.854;-9.384;2022-12-20T01:00:54;3.53;;;1.30;;
60917;SDS011;46792;38.854;-9.384;2022-12-20T01:02:56;12.77;;;2.15;;
60917;SDS011;46792;38.854;-9.384;2022-12-20T01:04:56;10.90;;;1.95;;
60917;SDS011;46792;38.854;-9.384;2022-12-20T01:06:57;20.80;;;2.40;;
60917;SDS011;46792;38.854;-9.384;2022-12-20T01:08:58;13.02;;;2.40;;
60917;SDS011;46792;38.854;-9.384;2022-12-20T01:11:03;6.82;;;2.50;;
60917;SDS011;46792;38.854;-9.384;2022-12-20T01:13:08;8.80;;;1.98;;
60917;SDS011;46792;38.854;-9.384;2022-12-20T01:15:09;11.98;;;2.33;;
60917;SDS011;46792;38.854;-9.384;2022-12-20T01:17:10;3.85;;;2.33;;
60917;SDS011;46792;38.854;-9.384;2022-12-20T01:19:12;2.67;;;0.90;;
60917;SDS011;46792;38.854;-9.384;2022-12-20T01:21:15;3.95;;;0.65;;
60917;SDS011;46792;38.854;-9.384;2022-12-20T01:23:17;5.80;;;1.50;;
60917;SDS011;46792;38.854;-9.384;2022-12-20T01:25:19;8.60;;;1.98;;
60917;SDS011;46792;38.854;-9.384;2022-12-20T01:27:20;17.15;;;2.45;;
60917;SDS011;46792;38.854;-9.384;2022-12-20T01:31:57;15.05;;;2.53;;
60917;SDS011;46792;38.854;-9.384;2022-12-20T01:33:58;14.45;;;2.97;;
60917;SDS011;46792;38.854;-9.384;2022-12-20T01:36:00;15.63;;;2.67;;
60917;SDS011;46792;38.854;-9.384;2022-12-20T01:38:03;15.10;;;2.92;;
60917;SDS011;46792;38.854;-9.384;2022-12-20T01:40:04;13.45;;;2.95;;
60917;SDS011;46792;38.854;-9.384;2022-12-20T01:42:05;23.50;;;3.47;;
60917;SDS011;46792;38.854;-9.384;2022-12-20T01:44:49;22.58;;;4.60;;
60917;SDS011;46792;38.854;-9.384;2022-12-20T01:46:28;31.33;;;4.20;;
60917;SDS011;46792;38.854;-9.384;2022-12-20T01:48:30;25.00;;;4.70;;
60917;SDS011;46792;38.854;-9.384;2022-12-20T01:50:31;29.52;;;3.70;;
60917;SDS011;46792;38.854;-9.384;2022-12-20T01:52:52;19.73;;;3.20;;
60917;SDS011;46792;38.854;-9.384;2022-12-20T01:54:54;25.48;;;3.90;;
60917;SDS011;46792;38.854;-9.384;2022-12-20T01:57:01;26.40;;;3.35;;
60917;SDS011;46792;38.854;-9.384;2022-12-20T01:59:24;17.65;;;2.78;;
60917;SDS011;46792;38.854;-9.384;2022-12-20T02:01:26;14.40;;;2.63;;
60917;SDS011;46792;38.854;-9.384;2022-12-20T02:03:28;20.15;;;2.50;;
60917;SDS011;46792;38.854;-9.384;2022-12-20T02:05:33;14.10;;;3.00;;
60917;SDS011;46792;38.854;-9.384;2022-12-20T02:07:35;21.95;;;2.22;;
60917;SDS011;46792;38.854;-9.384;2022-12-20T02:09:38;12.43;;;2.55;;
60917;SDS011;46792;38.854;-9.384;2022-12-20T02:11:45;12.77;;;2.40;;
60917;SDS011;46792;38.854;-9.384;2022-12-20T02:13:52;10.95;;;1.70;;
60917;SDS011;46792;38.854;-9.384;2022-12-20T02:16:03;5.97;;;2.17;;
60917;SDS011;46792;38.854;-9.384;2022-12-20T02:31:24;16.63;;;2.97;;
60917;SDS011;46792;38.854;-9.384;2022-12-20T02:33:29;15.30;;;2.58;;
60917;SDS011;46792;38.854;-9.384;2022-12-20T02:35:31;11.82;;;2.55;;
60917;SDS011;46792;38.854;-9.384;2022-12-20T02:37:53;25.17;;;3.08;;
60917;SDS011;46792;38.854;-9.384;2022-12-20T02:39:56;12.43;;;2.55;;
60917;SDS011;46792;38.854;-9.384;2022-12-20T02:41:58;19.27;;;3.65;;
60917;SDS011;46792;38.854;-9.384;2022-12-20T02:44:06;13.18;;;2.50;;
60917;SDS011;46792;38.854;-9.384;2022-12-20T02:46:29;18.48;;;2.70;;
60917;SDS011;46792;38.854;-9.384;2022-12-20T02:48:32;22.98;;;3.25;;
60917;SDS011;46792;38.854;-9.384;2022-12-20T02:50:35;17.88;;;3.33;;
60917;SDS011;46792;38.854;-9.384;2022-12-20T02:52:39;18.25;;;3.75;;
60917;SDS011;46792;38.854;-9.384;2022-12-20T02:54:41;18.38;;;4.32;;
60917;SDS011;46792;38.854;-9.384;2022-12-20T02:56:43;26.58;;;5.28;;
60917;SDS011;46792;38.854;-9.384;2022-12-20T02:59:10;17.98;;;4.45;;
60917;SDS011;46792;38.854;-9.384;2022-12-20T03:01:13;27.15;;;4.80;;
60917;SDS011;46792;38.854;-9.384;2022-12-20T03:03:40;34.35;;;4.82;;
60917;SDS011;46792;38.854;-9.384;2022-12-20T03:05:44;41.10;;;5.30;;
60917;SDS011;46792;38.854;-9.384;2022-12-20T03:07:48;27.95;;;4.20;;
60917;SDS011;46792;38.854;-9.384;2022-12-20T03:09:49;29.23;;;4.55;;
60917;SDS011;46792;38.854;-9.384;2022-12-20T03:11:50;21.45;;;3.70;;
60917;SDS011;46792;38.854;-9.384;2022-12-20T03:13:51;32.45;;;3.92;;
60917;SDS011;46792;38.854;-9.384;2022-12-20T03:15:51;22.23;;;5.18;;
60917;SDS011;46792;38.854;-9.384;2022-12-20T03:17:53;23.65;;;3.90;;
60917;SDS011;46792;38.854;-9.384;2022-12-20T03:19:53;24.05;;;3.90;;
60917;SDS011;46792;38.854;-9.384;2022-12-20T03:21:54;31.00;;;3.67;;
60917;SDS011;46792;38.854;-9.384;2022-12-20T03:23:54;26.85;;;4.47;;
60917;SDS011;46792;38.854;-9.384;2022-12-20T03:25:56;30.00;;;4.13;;
60917;SDS011;46792;38.854;-9.384;2022-12-20T03:28:14;22.73;;;4.13;;
60917;SDS011;46792;38.854;-9.384;2022-12-20T03:30:16;17.00;;;4.22;;
60917;SDS011;46792;38.854;-9.384;2022-12-20T03:32:16;30.58;;;5.25;;
60917;SDS011;46792;38.854;-9.384;2022-12-20T03:34:18;29.00;;;5.40;;
60917;SDS011;46792;38.854;-9.384;2022-12-20T03:36:18;27.92;;;4.60;;
60917;SDS011;46792;38.854;-9.384;2022-12-20T03:38:24;25.70;;;4.22;;
60917;SDS011;46792;38.854;-9.384;2022-12-20T03:40:25;17.65;;;3.97;;
60917;SDS011;46792;38.854;-9.384;2022-12-20T03:42:26;26.83;;;3.90;;
60917;SDS011;46792;38.854;-9.384;2022-12-20T03:44:45;31.13;;;3.97;;
60917;SDS011;46792;38.854;-9.384;2022-12-20T03:46:46;22.92;;;3.90;;
60917;SDS011;46792;38.854;-9.384;2022-12-20T03:48:47;14.98;;;2.60;;
60917;SDS011;46792;38.854;-9.384;2022-12-20T03:50:50;30.55;;;5.45;;
60917;SDS011;46792;38.854;-9.384;2022-12-20T03:52:51;29.33;;;4.70;;
60917;SDS011;46792;38.854;-9.384;2022-12-20T03:54:51;31.90;;;5.03;;
60917;SDS011;46792;38.854;-9.384;2022-12-20T03:56:54;19.83;;;2.90;;
60917;SDS011;46792;38.854;-9.384;2022-12-20T03:59:13;27.42;;;4.03;;
60917;SDS011;46792;38.854;-9.384;2022-12-20T04:01:16;30.10;;;4.28;;
60917;SDS011;46792;38.854;-9.384;2022-12-20T04:03:24;22.30;;;3.65;;
60917;SDS011;46792;38.854;-9.384;2022-12-20T04:05:25;21.63;;;3.97;;
60917;SDS011;46792;38.854;-9.384;2022-12-20T04:07:26;27.95;;;3.45;;
60917;SDS011;46792;38.854;-9.384;2022-12-20T04:09:27;24.25;;;3.35;;
60917;SDS011;46792;38.854;-9.384;2022-12-20T04:11:34;36.35;;;6.47;;
60917;SDS011;46792;38.854;-9.384;2022-12-20T04:13:45;30.58;;;4.90;;
60917;SDS011;46792;38.854;-9.384;2022-12-20T04:15:51;19.75;;;4.38;;
60917;SDS011;46792;38.854;-9.384;2022-12-20T04:20:32;27.50;;;4.55;;
60917;SDS011;46792;38.854;-9.384;2022-12-20T04:22:50;36.00;;;5.60;;
60917;SDS011;46792;38.854;-9.384;2022-12-20T04:24:51;30.45;;;4.38;;
60917;SDS011;46792;38.854;-9.384;2022-12-20T04:26:57;28.45;;;4.75;;
60917;SDS011;46792;38.854;-9.384;2022-12-20T04:28:58;31.48;;;5.30;;
60917;SDS011;46792;38.854;-9.384;2022-12-20T04:30:59;29.90;;;3.80;;
60917;SDS011;46792;38.854;-9.384;2022-12-20T04:33:03;27.48;;;4.03;;
60917;SDS011;46792;38.854;-9.384;2022-12-20T04:35:22;14.95;;;3.63;;
60917;SDS011;46792;38.854;-9.384;2022-12-20T04:37:22;29.52;;;4.35;;
60917;SDS011;46792;38.854;-9.384;2022-12-20T04:39:29;32.08;;;3.55;;
60917;SDS011;46792;38.854;-9.384;2022-12-20T04:41:47;23.08;;;3.78;;
60917;SDS011;46792;38.854;-9.384;2022-12-20T04:43:52;25.10;;;3.85;;
60917;SDS011;46792;38.854;-9.384;2022-12-20T04:45:57;22.58;;;3.50;;
60917;SDS011;46792;38.854;-9.384;2022-12-20T04:47:59;22.73;;;3.63;;
60917;SDS011;46792;38.854;-9.384;2022-12-20T04:50:08;30.65;;;3.47;;
60917;SDS011;46792;38.854;-9.384;2022-12-20T04:52:09;27.23;;;3.50;;
60917;SDS011;46792;38.854;-9.384;2022-12-20T04:54:31;21.33;;;3.55;;
60917;SDS011;46792;38.854;-9.384;2022-12-20T04:56:44;18.67;;;3.80;;
60917;SDS011;46792;38.854;-9.384;2022-12-20T04:58:50;9.80;;;2.55;;
60917;SDS011;46792;38.854;-9.384;2022-12-20T05:00:52;24.83;;;3.50;;
60917;SDS011;46792;38.854;-9.384;2022-12-20T05:02:59;21.13;;;3.28;;
60917;SDS011;46792;38.854;-9.384;2022-12-20T05:05:01;17.52;;;3.28;;
60917;SDS011;46792;38.854;-9.384;2022-12-20T05:07:05;40.40;;;7.43;;
60917;SDS011;46792;38.854;-9.384;2022-12-20T05:09:07;20.15;;;2.70;;
60917;SDS011;46792;38.854;-9.384;2022-12-20T05:11:08;16.35;;;2.97;;
60917;SDS011;46792;38.854;-9.384;2022-12-20T05:13:27;23.58;;;2.80;;
60917;SDS011;46792;38.854;-9.384;2022-12-20T05:15:29;24.73;;;3.40;;
60917;SDS011;46792;38.854;-9.384;2022-12-20T05:17:30;28.20;;;4.68;;
60917;SDS011;46792;38.854;-9.384;2022-12-20T05:19:31;21.42;;;2.90;;
60917;SDS011;46792;38.854;-9.384;2022-12-20T05:21:32;17.80;;;3.13;;
60917;SDS011;46792;38.854;-9.384;2022-12-20T05:23:52;17.85;;;2.67;;
60917;SDS011;46792;38.854;-9.384;2022-12-20T05:26:41;18.50;;;3.45;;
60917;SDS011;46792;38.854;-9.384;2022-12-20T05:28:41;9.23;;;2.17;;
60917;SDS011;46792;38.854;-9.384;2022-12-20T05:30:42;18.00;;;3.33;;
60917;SDS011;46792;38.854;-9.384;2022-12-20T05:32:46;17.77;;;2.97;;
60917;SDS011;46792;38.854;-9.384;2022-12-20T05:34:46;22.92;;;2.97;;
60917;SDS011;46792;38.854;-9.384;2022-12-20T05:37:05;9.40;;;1.80;;
60917;SDS011;46792;38.854;-9.384;2022-12-20T05:39:24;16.77;;;2.65;;
60917;SDS011;46792;38.854;-9.384;2022-12-20T05:41:28;20.25;;;3.00;;
60917;SDS011;46792;38.854;-9.384;2022-12-20T05:43:29;20.33;;;3.08;;
60917;SDS011;46792;38.854;-9.384;2022-12-20T05:45:30;16.60;;;2.80;;
60917;SDS011;46792;38.854;-9.384;2022-12-20T05:47:36;17.23;;;3.45;;
60917;SDS011;46792;38.854;-9.384;2022-12-20T05:49:41;18.40;;;3.22;;
60917;SDS011;46792;38.854;-9.384;2022-12-20T05:51:44;15.30;;;2.05;;
60917;SDS011;46792;38.854;-9.384;2022-12-20T05:53:53;3.85;;;1.40;;
60917;SDS011;46792;38.854;-9.384;2022-12-20T05:56:01;8.50;;;1.50;;
60917;SDS011;46792;38.854;-9.384;2022-12-20T05:58:07;2.38;;;0.70;;
60917;SDS011;46792;38.854;-9.384;2022-12-20T06:00:20;2.13;;;0.80;;
60917;SDS011;46792;38.854;-9.384;2022-12-20T06:02:23;3.25;;;1.08;;
60917;SDS011;46792;38.854;-9.384;2022-12-20T06:04:31;10.18;;;3.13;;
60917;SDS011;46792;38.854;-9.384;2022-12-20T06:06:35;11.38;;;2.10;;
60917;SDS011;46792;38.854;-9.384;2022-12-20T06:08:54;8.00;;;1.40;;
60917;SDS011;46792;38.854;-9.384;2022-12-20T06:11:14;2.70;;;1.30;;
60917;SDS011;46792;38.854;-9.384;2022-12-20T06:15:30;4.30;;;0.98;;
60917;SDS011;46792;38.854;-9.384;2022-12-20T06:17:33;8.90;;;1.13;;
60917;SDS011;46792;38.854;-9.384;2022-12-20T06:19:35;2.47;;;1.00;;
60917;SDS011;46792;38.854;-9.384;2022-12-20T06:21:36;7.60;;;1.42;;
60917;SDS011;46792;38.854;-9.384;2022-12-20T06:23:55;2.90;;;1.10;;
60917;SDS011;46792;38.854;-9.384;2022-12-20T06:25:56;5.72;;;3.00;;
60917;SDS011;46792;38.854;-9.384;2022-12-20T06:27:59;9.15;;;1.90;;
60917;SDS011;46792;38.854;-9.384;2022-12-20T06:29:59;8.90;;;1.63;;
60917;SDS011;46792;38.854;-9.384;2022-12-20T06:32:07;5.82;;;1.83;;
60917;SDS011;46792;38.854;-9.384;2022-12-20T06:34:08;6.53;;;1.67;;
60917;SDS011;46792;38.854;-9.384;2022-12-20T06:36:13;9.50;;;1.40;;
60917;SDS011;46792;38.854;-9.384;2022-12-20T06:38:13;12.23;;;2.75;;
60917;SDS011;46792;38.854;-9.384;2022-12-20T06:40:14;7.97;;;2.08;;
60917;SDS011;46792;38.854;-9.384;2022-12-20T06:42:14;5.50;;;1.70;;
60917;SDS011;46792;38.854;-9.384;2022-12-20T06:44:17;5.80;;;1.52;;
60917;SDS011;46792;38.854;-9.384;2022-12-20T06:46:18;4.40;;;1.15;;
60917;SDS011;46792;38.854;-9.384;2022-12-20T06:48:19;7.53;;;1.73;;
60917;SDS011;46792;38.854;-9.384;2022-12-20T06:50:23;2.22;;;1.48;;
60917;SDS011;46792;38.854;-9.384;2022-12-20T06:52:24;8.98;;;1.67;;
60917;SDS011;46792;38.854;-9.384;2022-12-20T06:54:44;8.77;;;1.70;;
60917;SDS011;46792;38.854;-9.384;2022-12-20T06:56:46;4.55;;;1.30;;
60917;SDS011;46792;38.854;-9.384;2022-12-20T06:58:47;11.85;;;1.50;;
60917;SDS011;46792;38.854;-9.384;2022-12-20T07:00:47;14.93;;;2.42;;
60917;SDS011;46792;38.854;-9.384;2022-12-20T07:02:48;9.63;;;2.30;;
60917;SDS011;46792;38.854;-9.384;2022-12-20T07:04:49;9.55;;;1.90;;
60917;SDS011;46792;38.854;-9.384;2022-12-20T07:06:50;7.25;;;1.75;;
60917;SDS011;46792;38.854;-9.384;2022-12-20T07:08:50;14.85;;;2.10;;
60917;SDS011;46792;38.854;-9.384;2022-12-20T07:10:51;9.05;;;2.40;;
60917;SDS011;46792;38.854;-9.384;2022-12-20T07:12:51;17.98;;;2.67;;
60917;SDS011;46792;38.854;-9.384;2022-12-20T07:14:52;18.92;;;2.88;;
60917;SDS011;46792;38.854;-9.384;2022-12-20T07:16:55;13.38;;;2.35;;
60917;SDS011;46792;38.854;-9.384;2022-12-20T07:18:56;15.75;;;3.35;;
60917;SDS011;46792;38.854;-9.384;2022-12-20T07:21:15;16.00;;;2.28;;
60917;SDS011;46792;38.854;-9.384;2022-12-20T07:23:18;15.40;;;3.30;;
60917;SDS011;46792;38.854;-9.384;2022-12-20T07:25:18;19.23;;;3.38;;
60917;SDS011;46792;38.854;-9.384;2022-12-20T07:27:19;21.58;;;3.58;;
60917;SDS011;46792;38.854;-9.384;2022-12-20T07:29:20;12.52;;;3.50;;
60917;SDS011;46792;38.854;-9.384;2022-12-20T07:31:20;22.50;;;3.30;;
60917;SDS011;46792;38.854;-9.384;2022-12-20T07:33:21;14.95;;;2.78;;
60917;SDS011;46792;38.854;-9.384;2022-12-20T07:35:21;14.02;;;2.55;;
60917;SDS011;46792;38.854;-9.384;2022-12-20T07:37:22;13.63;;;2.75;;
60917;SDS011;46792;38.854;-9.384;2022-12-20T07:39:22;15.23;;;3.45;;
60917;SDS011;46792;38.854;-9.384;2022-12-20T07:41:23;15.40;;;3.60;;
60917;SDS011;46792;38.854;-9.384;2022-12-20T07:43:24;22.25;;;3.08;;
60917;SDS011;46792;38.854;-9.384;2022-12-20T07:45:25;15.32;;;3.17;;
60917;SDS011;46792;38.854;-9.384;2022-12-20T07:47:25;16.98;;;3.40;;
60917;SDS011;46792;38.854;-9.384;2022-12-20T07:49:27;19.85;;;2.58;;
60917;SDS011;46792;38.854;-9.384;2022-12-20T07:51:28;12.30;;;2.65;;
60917;SDS011;46792;38.854;-9.384;2022-12-20T07:53:33;20.35;;;3.08;;
60917;SDS011;46792;38.854;-9.384;2022-12-20T07:55:56;19.10;;;3.33;;
60917;SDS011;46792;38.854;-9.384;2022-12-20T07:58:01;19.10;;;3.40;;
60917;SDS011;46792;38.854;-9.384;2022-12-20T08:00:06;20.45;;;3.78;;
60917;SDS011;46792;38.854;-9.384;2022-12-20T08:02:18;20.77;;;2.70;;
60917;SDS011;46792;38.854;-9.384;2022-12-20T08:04:25;12.30;;;2.92;;
60917;SDS011;46792;38.854;-9.384;2022-12-20T08:06:28;14.48;;;2.83;;
60917;SDS011;46792;38.854;-9.384;2022-12-20T08:08:31;24.55;;;4.05;;
60917;SDS011;46792;38.854;-9.384;2022-12-20T08:10:32;27.58;;;4.47;;
60917;SDS011;46792;38.854;-9.384;2022-12-20T08:12:33;20.00;;;2.63;;
60917;SDS011;46792;38.854;-9.384;2022-12-20T08:14:34;23.90;;;3.90;;
60917;SDS011;46792;38.854;-9.384;2022-12-20T08:16:35;18.00;;;3.67;;
60917;SDS011;46792;38.854;-9.384;2022-12-20T08:18:36;18.13;;;2.88;;
60917;SDS011;46792;38.854;-9.384;2022-12-20T08:20:36;18.73;;;3.47;;
60917;SDS011;46792;38.854;-9.384;2022-12-20T08:22:37;16.13;;;2.97;;
60917;SDS011;46792;38.854;-9.384;2022-12-20T08:24:38;21.75;;;3.60;;
60917;SDS011;46792;38.854;-9.384;2022-12-20T08:26:39;20.88;;;3.90;;
60917;SDS011;46792;38.854;-9.384;2022-12-20T08:28:40;32.45;;;3.70;;
60917;SDS011;46792;38.854;-9.384;2022-12-20T08:30:41;23.75;;;4.32;;
60917;SDS011;46792;38.854;-9.384;2022-12-20T08:32:42;21.05;;;3.10;;
60917;SDS011;46792;38.854;-9.384;2022-12-20T08:34:42;31.27;;;4.38;;
60917;SDS011;46792;38.854;-9.384;2022-12-20T08:36:43;20.73;;;4.55;;
60917;SDS011;46792;38.854;-9.384;2022-12-20T08:38:43;21.50;;;5.22;;
60917;SDS011;46792;38.854;-9.384;2022-12-20T08:40:44;29.05;;;4.20;;
60917;SDS011;46792;38.854;-9.384;2022-12-20T08:42:45;24.67;;;2.95;;
60917;SDS011;46792;38.854;-9.384;2022-12-20T08:44:47;19.48;;;3.25;;
60917;SDS011;46792;38.854;-9.384;2022-12-20T08:46:48;18.38;;;2.83;;
60917;SDS011;46792;38.854;-9.384;2022-12-20T08:48:49;7.75;;;1.98;;
60917;SDS011;46792;38.854;-9.384;2022-12-20T08:50:56;23.55;;;3.08;;
60917;SDS011;46792;38.854;-9.384;2022-12-20T08:53:00;15.05;;;2.47;;
60917;SDS011;46792;38.854;-9.384;2022-12-20T08:55:00;20.67;;;2.60;;
60917;SDS011;46792;38.854;-9.384;2022-12-20T08:57:01;20.63;;;2.45;;
60917;SDS011;46792;38.854;-9.384;2022-12-20T08:59:01;19.27;;;2.92;;
60917;SDS011;46792;38.854;-9.384;2022-12-20T09:01:03;15.20;;;3.00;;
60917;SDS011;46792;38.854;-9.384;2022-12-20T09:03:05;20.30;;;3.58;;
60917;SDS011;46792;38.854;-9.384;2022-12-20T09:05:07;15.68;;;3.50;;
60917;SDS011;46792;38.854;-9.384;2022-12-20T09:07:08;23.45;;;2.95;;
60917;SDS011;46792;38.854;-9.384;2022-12-20T09:09:09;22.02;;;3.30;;
60917;SDS011;46792;38.854;-9.384;2022-12-20T09:11:14;30.42;;;3.72;;
60917;SDS011;46792;38.854;-9.384;2022-12-20T09:13:19;21.00;;;3.33;;
60917;SDS011;46792;38.854;-9.384;2022-12-20T09:15:20;20.63;;;2.53;;
60917;SDS011;46792;38.854;-9.384;2022-12-20T09:17:21;17.50;;;5.60;;
60917;SDS011;46792;38.854;-9.384;2022-12-20T09:19:21;26.35;;;4.20;;
60917;SDS011;46792;38.854;-9.384;2022-12-20T09:21:22;19.58;;;3.80;;
60917;SDS011;46792;38.854;-9.384;2022-12-20T09:23:23;24.33;;;3.33;;
60917;SDS011;46792;38.854;-9.384;2022-12-20T09:25:24;21.33;;;4.68;;
60917;SDS011;46792;38.854;-9.384;2022-12-20T09:27:26;23.25;;;5.20;;
60917;SDS011;46792;38.854;-9.384;2022-12-20T09:29:26;14.65;;;3.60;;
60917;SDS011;46792;38.854;-9.384;2022-12-20T09:31:27;26.77;;;2.72;;
60917;SDS011;46792;38.854;-9.384;2022-12-20T09:33:28;24.80;;;4.65;;
60917;SDS011;46792;38.854;-9.384;2022-12-20T09:35:30;20.60;;;3.38;;
60917;SDS011;46792;38.854;-9.384;2022-12-20T09:37:35;23.92;;;3.35;;
60917;SDS011;46792;38.854;-9.384;2022-12-20T09:39:37;28.80;;;3.95;;
60917;SDS011;46792;38.854;-9.384;2022-12-20T09:41:38;20.90;;;3.65;;
60917;SDS011;46792;38.854;-9.384;2022-12-20T09:43:42;26.95;;;3.53;;
60917;SDS011;46792;38.854;-9.384;2022-12-20T09:45:44;43.38;;;3.83;;
60917;SDS011;46792;38.854;-9.384;2022-12-20T09:47:46;25.50;;;3.45;;
60917;SDS011;46792;38.854;-9.384;2022-12-20T09:49:48;19.85;;;2.90;;
60917;SDS011;46792;38.854;-9.384;2022-12-20T09:56:24;17.95;;;3.13;;
60917;SDS011;46792;38.854;-9.384;2022-12-20T10:00:49;22.58;;;3.47;;
60917;SDS011;46792;38.854;-9.384;2022-12-20T10:02:50;27.50;;;3.67;;
60917;SDS011;46792;38.854;-9.384;2022-12-20T10:04:51;32.13;;;5.28;;
60917;SDS011;46792;38.854;-9.384;2022-12-20T10:09:04;30.25;;;4.07;;
60917;SDS011;46792;38.854;-9.384;2022-12-20T10:12:13;39.42;;;4.15;;
60917;SDS011;46792;38.854;-9.384;2022-12-20T10:18:52;27.15;;;3.72;;
60917;SDS011;46792;38.854;-9.384;2022-12-20T10:21:03;28.73;;;2.85;;
60917;SDS011;46792;38.854;-9.384;2022-12-20T10:25:19;26.20;;;6.65;;
60917;SDS011;46792;38.854;-9.384;2022-12-20T10:27:24;25.65;;;3.75;;
60917;SDS011;46792;38.854;-9.384;2022-12-20T10:29:25;30.58;;;4.32;;
60917;SDS011;46792;38.854;-9.384;2022-12-20T10:31:25;28.80;;;3.92;;
60917;SDS011;46792;38.854;-9.384;2022-12-20T10:33:26;34.88;;;4.22;;
60917;SDS011;46792;38.854;-9.384;2022-12-20T10:35:29;30.60;;;4.78;;
60917;SDS011;46792;38.854;-9.384;2022-12-20T10:37:35;25.75;;;4.03;;
60917;SDS011;46792;38.854;-9.384;2022-12-20T10:39:40;29.55;;;2.95;;
60917;SDS011;46792;38.854;-9.384;2022-12-20T10:43:43;22.05;;;3.55;;
60917;SDS011;46792;38.854;-9.384;2022-12-20T10:46:05;21.92;;;3.47;;
60917;SDS011;46792;38.854;-9.384;2022-12-20T10:48:27;27.17;;;5.55;;
60917;SDS011;46792;38.854;-9.384;2022-12-20T10:50:30;45.67;;;7.15;;
60917;SDS011;46792;38.854;-9.384;2022-12-20T10:52:31;17.13;;;2.72;;
60917;SDS011;46792;38.854;-9.384;2022-12-20T10:54:36;31.38;;;4.57;;
60917;SDS011;46792;38.854;-9.384;2022-12-20T10:56:39;30.35;;;3.97;;
60917;SDS011;46792;38.854;-9.384;2022-12-20T10:58:40;39.22;;;4.22;;
60917;SDS011;46792;38.854;-9.384;2022-12-20T11:00:41;28.67;;;5.47;;
60917;SDS011;46792;38.854;-9.384;2022-12-20T11:02:42;41.05;;;4.93;;
60917;SDS011;46792;38.854;-9.384;2022-12-20T11:07:23;34.85;;;4.45;;
60917;SDS011;46792;38.854;-9.384;2022-12-20T11:09:28;31.20;;;4.15;;
60917;SDS011;46792;38.854;-9.384;2022-12-20T11:11:35;35.72;;;4.20;;
60917;SDS011;46792;38.854;-9.384;2022-12-20T11:13:36;22.30;;;3.75;;
60917;SDS011;46792;38.854;-9.384;2022-12-20T11:15:36;26.23;;;4.78;;
60917;SDS011;46792;38.854;-9.384;2022-12-20T11:17:51;23.65;;;3.92;;
60917;SDS011;46792;38.854;-9.384;2022-12-20T11:23:02;33.13;;;4.18;;
60917;SDS011;46792;38.854;-9.384;2022-12-20T11:27:52;22.67;;;4.40;;
60917;SDS011;46792;38.854;-9.384;2022-12-20T11:30:18;32.28;;;4.32;;
60917;SDS011;46792;38.854;-9.384;2022-12-20T11:32:31;27.20;;;5.72;;
60917;SDS011;46792;38.854;-9.384;2022-12-20T11:37:19;29.38;;;4.28;;
60917;SDS011;46792;38.854;-9.384;2022-12-20T11:39:31;32.60;;;5.15;;
60917;SDS011;46792;38.854;-9.384;2022-12-20T11:41:44;28.95;;;4.32;;
60917;SDS011;46792;38.854;-9.384;2022-12-20T11:50:57;39.60;;;5.80;;
60917;SDS011;46792;38.854;-9.384;2022-12-20T11:53:04;43.28;;;6.47;;
60917;SDS011;46792;38.854;-9.384;2022-12-20T11:57:31;32.38;;;6.32;;
60917;SDS011;46792;38.854;-9.384;2022-12-20T11:59:51;35.85;;;6.82;;
60917;SDS011;46792;38.854;-9.384;2022-12-20T12:02:00;44.65;;;9.05;;
60917;SDS011;46792;38.854;-9.384;2022-12-20T12:04:25;43.28;;;8.45;;
60917;SDS011;46792;38.854;-9.384;2022-12-20T12:06:33;32.20;;;5.70;;
60917;SDS011;46792;38.854;-9.384;2022-12-20T12:08:47;39.55;;;6.70;;
60917;SDS011;46792;38.854;-9.384;2022-12-20T12:11:03;47.25;;;7.25;;
60917;SDS011;46792;38.854;-9.384;2022-12-20T12:13:20;38.45;;;6.28;;
60917;SDS011;46792;38.854;-9.384;2022-12-20T12:17:47;42.00;;;7.07;;
60917;SDS011;46792;38.854;-9.384;2022-12-20T12:19:55;23.23;;;5.85;;
60917;SDS011;46792;38.854;-9.384;2022-12-20T12:22:04;40.38;;;7.03;;
60917;SDS011;46792;38.854;-9.384;2022-12-20T12:28:30;48.15;;;7.03;;
60917;SDS011;46792;38.854;-9.384;2022-12-20T12:30:35;31.63;;;6.22;;
60917;SDS011;46792;38.854;-9.384;2022-12-20T12:32:40;51.15;;;6.93;;
60917;SDS011;46792;38.854;-9.384;2022-12-20T12:46:36;31.63;;;5.47;;
60917;SDS011;46792;38.854;-9.384;2022-12-20T12:48:58;40.33;;;5.93;;
60917;SDS011;46792;38.854;-9.384;2022-12-20T12:51:03;36.33;;;5.28;;
60917;SDS011;46792;38.854;-9.384;2022-12-20T12:53:31;36.35;;;5.60;;
60917;SDS011;46792;38.854;-9.384;2022-12-20T12:57:55;29.95;;;4.10;;
60917;SDS011;46792;38.854;-9.384;2022-12-20T13:02:50;24.33;;;3.47;;
60917;SDS011;46792;38.854;-9.384;2022-12-20T13:04:58;28.30;;;4.03;;
60917;SDS011;46792;38.854;-9.384;2022-12-20T13:13:40;27.63;;;4.07;;
60917;SDS011;46792;38.854;-9.384;2022-12-20T13:17:44;21.40;;;4.18;;
60917;SDS011;46792;38.854;-9.384;2022-12-20T13:19:54;30.63;;;4.47;;
60917;SDS011;46792;38.854;-9.384;2022-12-20T13:21:55;32.72;;;3.75;;
60917;SDS011;46792;38.854;-9.384;2022-12-20T13:26:50;25.50;;;3.60;;
60917;SDS011;46792;38.854;-9.384;2022-12-20T13:28:53;26.55;;;3.97;;
60917;SDS011;46792;38.854;-9.384;2022-12-20T13:35:52;17.40;;;3.65;;
60917;SDS011;46792;38.854;-9.384;2022-12-20T13:37:59;11.35;;;2.40;;
60917;SDS011;46792;38.854;-9.384;2022-12-20T13:40:05;12.95;;;3.17;;
60917;SDS011;46792;38.854;-9.384;2022-12-20T13:42:26;23.20;;;2.72;;
60917;SDS011;46792;38.854;-9.384;2022-12-20T13:44:34;22.83;;;4.97;;
60917;SDS011;46792;38.854;-9.384;2022-12-20T13:49:24;26.50;;;3.05;;
60917;SDS011;46792;38.854;-9.384;2022-12-20T13:51:30;24.80;;;3.70;;
60917;SDS011;46792;38.854;-9.384;2022-12-20T13:53:30;22.65;;;3.78;;
60917;SDS011;46792;38.854;-9.384;2022-12-20T13:55:32;21.20;;;3.15;;
60917;SDS011;46792;38.854;-9.384;2022-12-20T13:57:40;18.92;;;2.85;;
60917;SDS011;46792;38.854;-9.384;2022-12-20T13:59:48;19.85;;;2.67;;
60917;SDS011;46792;38.854;-9.384;2022-12-20T14:01:54;24.17;;;3.20;;
60917;SDS011;46792;38.854;-9.384;2022-12-20T14:04:02;20.95;;;3.00;;
60917;SDS011;46792;38.854;-9.384;2022-12-20T14:06:09;14.43;;;2.40;;
60917;SDS011;46792;38.854;-9.384;2022-12-20T14:08:16;32.70;;;4.13;;
60917;SDS011;46792;38.854;-9.384;2022-12-20T14:12:51;25.85;;;5.28;;